Time;durP1;ratioP1;P1;durP2;ratioP2;P2;SDS_P1;SDS_P2;PMS_P1;PMS_P2;Temp;Humidity;BMP_temperature;BMP_pressure;BME280_temperature;BME280_humidity;BME280_pressure;Samples;Min_cycle;Max_cycle;Signal;HPM_P1;HPM_P2
2023/06/16 00:00:59;;;;;;;6.22;5.93;;;;;;;;;;5201800;22;20027;-60
2023/06/16 00:03:21;;;;;;;8.00;5.43;;;;;;;;;;5201693;22;20021;-59
2023/06/16 00:05:44;;;;;;;4.93;4.63;;;;;;;;;;5201723;22;20333;-60
2023/06/16 00:08:05;;;;;;;4.22;4.07;;;;;;;;;;5201635;22;20037;-60
2023/06/16 00:10:25;;;;;;;5.70;5.38;;;;;;;;;;5201660;22;20065;-60
2023/06/16 00:12:46;;;;;;;5.57;5.18;;;;;;;;;;5201617;22;20023;-60
2023/06/16 00:15:08;;;;;;;5.70;4.90;;;;;;;;;;5201621;22;20357;-60
2023/06/16 00:17:28;;;;;;;5.35;5.05;;;;;;;;;;5201646;22;20030;-60
2023/06/16 00:19:48;;;;;;;5.78;5.63;;;;;;;;;;5201835;22;20026;-60
2023/06/16 00:22:10;;;;;;;6.25;5.95;;;;;;;;;;5201645;22;20057;-60
2023/06/16 00:24:32;;;;;;;5.70;5.27;;;;;;;;;;5201710;22;20026;-59
2023/06/16 00:26:52;;;;;;;4.72;4.50;;;;;;;;;;5201593;22;20245;-60
2023/06/16 00:29:13;;;;;;;5.43;5.22;;;;;;;;;;5201568;22;20023;-60
2023/06/16 00:31:33;;;;;;;5.18;4.97;;;;;;;;;;5201664;22;20346;-60
2023/06/16 00:33:53;;;;;;;4.95;4.53;;;;;;;;;;5201569;22;20401;-60
2023/06/16 00:36:13;;;;;;;5.75;5.55;;;;;;;;;;5201568;22;20227;-60
2023/06/16 00:38:34;;;;;;;6.00;5.50;;;;;;;;;;5201595;22;20058;-60
2023/06/16 00:40:55;;;;;;;6.15;5.72;;;;;;;;;;5201497;22;20061;-60
2023/06/16 00:43:15;;;;;;;6.03;5.63;;;;;;;;;;5201465;22;20022;-60
2023/06/16 00:45:35;;;;;;;5.65;5.30;;;;;;;;;;5201577;22;20026;-60
2023/06/16 00:47:55;;;;;;;5.53;5.28;;;;;;;;;;5201369;22;20102;-59
2023/06/16 00:50:16;;;;;;;5.20;5.10;;;;;;;;;;5201523;22;20066;-60
2023/06/16 00:52:38;;;;;;;6.22;5.82;;;;;;;;;;5201507;22;20333;-59
2023/06/16 00:54:58;;;;;;;6.53;5.68;;;;;;;;;;5201588;22;20034;-59
2023/06/16 00:57:18;;;;;;;5.47;5.38;;;;;;;;;;5201428;22;20022;-60
2023/06/16 00:59:39;;;;;;;5.53;5.07;;;;;;;;;;5201380;22;20054;-60
2023/06/16 01:01:59;;;;;;;5.80;5.50;;;;;;;;;;5201769;22;20022;-60
2023/06/16 01:04:22;;;;;;;6.93;6.63;;;;;;;;;;5198854;22;20080;-56
2023/06/16 01:07:18;;;;;;;5.63;5.22;;;;;;;;;;5200828;22;20027;-56
2023/06/16 01:09:41;;;;;;;5.53;5.22;;;;;;;;;;5074252;23;20260;-56
2023/06/16 01:12:07;;;;;;;5.60;5.40;;;;;;;;;;5072141;23;20114;-56
2023/06/16 01:14:36;;;;;;;6.13;5.82;;;;;;;;;;5074631;23;20218;-56
2023/06/16 01:16:57;;;;;;;5.13;4.78;;;;;;;;;;5074364;23;20110;-56
2023/06/16 01:19:29;;;;;;;5.15;5.05;;;;;;;;;;5074440;23;20032;-56
2023/06/16 01:22:09;;;;;;;6.47;6.07;;;;;;;;;;5074391;23;20040;-56
2023/06/16 01:24:32;;;;;;;5.28;5.07;;;;;;;;;;5074998;23;20028;-56
2023/06/16 01:26:54;;;;;;;5.03;4.85;;;;;;;;;;5075188;23;20425;-57
2023/06/16 01:29:14;;;;;;;4.70;4.50;;;;;;;;;;5075070;23;20024;-56
2023/06/16 01:31:36;;;;;;;6.18;5.97;;;;;;;;;;5075091;23;20025;-56
2023/06/16 01:33:57;;;;;;;5.88;5.32;;;;;;;;;;5075019;23;20032;-57
2023/06/16 01:36:18;;;;;;;6.15;5.07;;;;;;;;;;5075003;23;20368;-56
2023/06/16 01:38:39;;;;;;;4.68;4.40;;;;;;;;;;5074929;23;20025;-57
2023/06/16 01:41:00;;;;;;;6.57;5.57;;;;;;;;;;5093754;23;20383;-57
2023/06/16 01:43:21;;;;;;;4.72;4.57;;;;;;;;;;5149794;22;20022;-56
2023/06/16 01:45:42;;;;;;;5.57;5.22;;;;;;;;;;5226829;22;20336;-57
2023/06/16 01:48:03;;;;;;;5.45;4.93;;;;;;;;;;5226739;22;20087;-57
2023/06/16 01:50:23;;;;;;;6.07;5.50;;;;;;;;;;5226949;22;20026;-56
2023/06/16 01:52:44;;;;;;;5.35;5.10;;;;;;;;;;5226775;22;20367;-56
2023/06/16 01:55:05;;;;;;;4.90;4.43;;;;;;;;;;5226789;22;20034;-57
2023/06/16 01:57:25;;;;;;;5.30;5.10;;;;;;;;;;5226795;22;20021;-57
2023/06/16 01:59:48;;;;;;;4.68;4.57;;;;;;;;;;5226728;22;20068;-57
2023/06/16 02:02:13;;;;;;;5.80;5.33;;;;;;;;;;5226620;22;20206;-57
2023/06/16 02:04:34;;;;;;;5.38;5.18;;;;;;;;;;5226631;22;20026;-56
2023/06/16 02:07:09;;;;;;;5.35;5.15;;;;;;;;;;5226760;22;20038;-56
2023/06/16 02:09:31;;;;;;;6.30;5.93;;;;;;;;;;5226675;22;20037;-56
2023/06/16 02:11:53;;;;;;;6.03;5.93;;;;;;;;;;5226596;22;20038;-56
2023/06/16 02:14:13;;;;;;;5.22;5.03;;;;;;;;;;5203687;22;20058;-56
2023/06/16 02:16:42;;;;;;;5.75;5.55;;;;;;;;;;5226634;22;20129;-56
2023/06/16 02:19:03;;;;;;;5.75;5.45;;;;;;;;;;5226565;22;20022;-56
2023/06/16 02:21:24;;;;;;;6.90;6.28;;;;;;;;;;5226523;22;20213;-57
2023/06/16 02:23:44;;;;;;;5.18;4.88;;;;;;;;;;5203577;22;20066;-57
2023/06/16 02:26:05;;;;;;;6.55;6.05;;;;;;;;;;5227556;22;20332;-56
2023/06/16 02:28:25;;;;;;;5.50;5.07;;;;;;;;;;5227493;22;20021;-57
2023/06/16 02:30:45;;;;;;;5.65;5.30;;;;;;;;;;5227695;22;20081;-57
2023/06/16 02:33:05;;;;;;;5.45;5.35;;;;;;;;;;5227747;22;20349;-56
2023/06/16 02:35:26;;;;;;;5.30;5.20;;;;;;;;;;5227688;22;20213;-57
2023/06/16 02:37:51;;;;;;;6.35;6.05;;;;;;;;;;5227634;22;20037;-57
2023/06/16 02:40:12;;;;;;;5.22;5.03;;;;;;;;;;5227704;22;20023;-57
2023/06/16 02:42:32;;;;;;;5.50;5.38;;;;;;;;;;5227684;22;20073;-57
2023/06/16 02:44:53;;;;;;;6.07;5.85;;;;;;;;;;5204723;22;20057;-57
2023/06/16 02:47:13;;;;;;;5.93;5.72;;;;;;;;;;5227725;22;20026;-56
2023/06/16 02:49:33;;;;;;;5.30;5.20;;;;;;;;;;5227663;22;20041;-56
2023/06/16 02:51:53;;;;;;;6.40;6.20;;;;;;;;;;5227610;22;20079;-56
2023/06/16 02:54:13;;;;;;;5.75;5.55;;;;;;;;;;5227680;22;20109;-56
2023/06/16 02:56:33;;;;;;;5.45;5.15;;;;;;;;;;5227668;22;20065;-56
2023/06/16 02:58:53;;;;;;;5.82;5.68;;;;;;;;;;5227576;22;20041;-56
2023/06/16 03:01:14;;;;;;;5.68;5.40;;;;;;;;;;5227639;22;20022;-56
2023/06/16 03:03:36;;;;;;;6.20;5.95;;;;;;;;;;5227776;22;20060;-56
2023/06/16 03:05:57;;;;;;;5.90;5.18;;;;;;;;;;5227571;22;20075;-57
2023/06/16 03:08:21;;;;;;;5.43;5.22;;;;;;;;;;5227452;22;20083;-58
2023/06/16 03:10:41;;;;;;;5.68;5.57;;;;;;;;;;5227672;22;20034;-57
2023/06/16 03:13:01;;;;;;;4.80;4.65;;;;;;;;;;5227610;22;20045;-57
2023/06/16 03:15:27;;;;;;;7.15;6.85;;;;;;;;;;5227557;22;20085;-57
2023/06/16 03:17:47;;;;;;;5.53;5.20;;;;;;;;;;5227534;22;20026;-56
2023/06/16 03:20:08;;;;;;;5.90;5.80;;;;;;;;;;5227552;22;20248;-56
2023/06/16 03:22:29;;;;;;;5.65;5.45;;;;;;;;;;5227574;22;20095;-57
2023/06/16 03:24:50;;;;;;;5.80;5.50;;;;;;;;;;5227503;22;20022;-56
2023/06/16 03:27:11;;;;;;;5.25;4.80;;;;;;;;;;5227661;22;20026;-56
2023/06/16 03:29:31;;;;;;;5.18;5.07;;;;;;;;;;5227438;22;20026;-56
2023/06/16 03:31:51;;;;;;;5.82;5.45;;;;;;;;;;5227435;22;20026;-56
2023/06/16 03:34:11;;;;;;;5.53;5.32;;;;;;;;;;5227537;22;20076;-57
2023/06/16 03:36:44;;;;;;;6.68;6.13;;;;;;;;;;5227298;22;20289;-56
2023/06/16 03:39:05;;;;;;;4.93;4.82;;;;;;;;;;5227426;22;20027;-57
2023/06/16 03:41:26;;;;;;;5.90;5.80;;;;;;;;;;5227334;22;20022;-56
2023/06/16 03:43:46;;;;;;;4.55;4.45;;;;;;;;;;5227514;22;20121;-57
2023/06/16 03:46:07;;;;;;;4.82;4.50;;;;;;;;;;5227433;22;20038;-57
2023/06/16 03:48:27;;;;;;;5.30;5.18;;;;;;;;;;5227369;22;20026;-57
2023/06/16 03:50:47;;;;;;;5.82;5.30;;;;;;;;;;5227499;22;20075;-57
2023/06/16 03:53:08;;;;;;;6.22;5.32;;;;;;;;;;5227800;22;20079;-56
2023/06/16 03:55:36;;;;;;;5.30;4.85;;;;;;;;;;5227296;22;20041;-57
2023/06/16 03:57:57;;;;;;;5.82;5.38;;;;;;;;;;5227352;22;20213;-56
2023/06/16 04:00:17;;;;;;;5.95;5.50;;;;;;;;;;5227379;22;20104;-56
2023/06/16 04:02:40;;;;;;;5.68;5.57;;;;;;;;;;5227316;22;20340;-56
2023/06/16 04:05:01;;;;;;;5.25;4.95;;;;;;;;;;5227404;22;20094;-56
2023/06/16 04:07:22;;;;;;;5.63;5.22;;;;;;;;;;5227462;22;20093;-56
2023/06/16 04:09:43;;;;;;;5.78;5.28;;;;;;;;;;5227292;22;20042;-57
2023/06/16 04:12:03;;;;;;;5.22;4.93;;;;;;;;;;5224608;22;20021;-57
2023/06/16 04:14:24;;;;;;;12.40;5.75;;;;;;;;;;5227400;22;20060;-57
2023/06/16 04:16:44;;;;;;;7.70;5.70;;;;;;;;;;5227396;22;20078;-57
2023/06/16 04:19:06;;;;;;;5.40;5.30;;;;;;;;;;5202331;22;20203;-57
2023/06/16 04:21:27;;;;;;;4.73;4.63;;;;;;;;;;5227276;22;20026;-57
2023/06/16 04:23:47;;;;;;;6.95;6.45;;;;;;;;;;5227322;22;20083;-57
2023/06/16 04:26:08;;;;;;;6.10;5.80;;;;;;;;;;5227277;22;20102;-56
2023/06/16 04:28:30;;;;;;;6.45;6.20;;;;;;;;;;5227275;22;20254;-57
2023/06/16 04:30:50;;;;;;;6.63;6.07;;;;;;;;;;5227410;22;20026;-57
2023/06/16 04:33:11;;;;;;;5.68;5.55;;;;;;;;;;5227291;22;20251;-57
2023/06/16 04:35:33;;;;;;;5.57;5.40;;;;;;;;;;5227217;22;20023;-57
2023/06/16 04:37:56;;;;;;;6.97;6.67;;;;;;;;;;5227283;22;20026;-57
2023/06/16 04:40:17;;;;;;;5.93;5.13;;;;;;;;;;5227147;22;20444;-57
2023/06/16 04:42:38;;;;;;;7.03;6.65;;;;;;;;;;5204398;22;20400;-57
2023/06/16 04:45:01;;;;;;;6.28;5.90;;;;;;;;;;5227201;22;20027;-57
2023/06/16 04:47:21;;;;;;;7.40;6.93;;;;;;;;;;5226700;22;20037;-57
2023/06/16 04:49:42;;;;;;;6.20;6.00;;;;;;;;;;5227207;22;20222;-57
2023/06/16 04:52:02;;;;;;;6.57;6.22;;;;;;;;;;5227161;22;20336;-57
2023/06/16 04:54:24;;;;;;;5.30;5.07;;;;;;;;;;5227218;22;20026;-57
2023/06/16 04:56:45;;;;;;;5.38;5.28;;;;;;;;;;5227171;22;20086;-57
2023/06/16 04:59:05;;;;;;;5.82;5.65;;;;;;;;;;5227135;22;20363;-57
2023/06/16 05:01:26;;;;;;;6.03;5.72;;;;;;;;;;5227189;22;20026;-57
2023/06/16 05:03:47;;;;;;;5.07;4.70;;;;;;;;;;5227125;22;20209;-57
2023/06/16 05:06:07;;;;;;;6.18;5.88;;;;;;;;;;5224989;22;20049;-57
2023/06/16 05:08:28;;;;;;;5.47;5.30;;;;;;;;;;5227038;22;20021;-57
2023/06/16 05:10:48;;;;;;;6.30;5.68;;;;;;;;;;5201698;22;20027;-56
2023/06/16 05:13:08;;;;;;;5.10;4.93;;;;;;;;;;5227057;22;20079;-57
2023/06/16 05:15:29;;;;;;;8.07;5.00;;;;;;;;;;5226989;22;20026;-58
2023/06/16 05:17:50;;;;;;;5.05;4.85;;;;;;;;;;5204309;22;20352;-58
2023/06/16 05:20:11;;;;;;;7.45;4.63;;;;;;;;;;5226973;22;20089;-58
2023/06/16 05:22:31;;;;;;;5.43;5.22;;;;;;;;;;5204154;22;20063;-58
2023/06/16 05:24:57;;;;;;;6.13;6.03;;;;;;;;;;5227046;22;20065;-58
2023/06/16 05:27:17;;;;;;;5.13;4.95;;;;;;;;;;5204104;22;20038;-58
2023/06/16 05:29:38;;;;;;;4.90;4.70;;;;;;;;;;5226865;22;20038;-58
2023/06/16 05:31:58;;;;;;;5.15;5.05;;;;;;;;;;5226982;22;20042;-58
2023/06/16 05:34:18;;;;;;;7.15;5.22;;;;;;;;;;5226932;22;20042;-58
2023/06/16 05:36:38;;;;;;;4.72;4.47;;;;;;;;;;5226843;22;20022;-58
2023/06/16 05:38:59;;;;;;;4.97;4.78;;;;;;;;;;5226915;22;20021;-58
2023/06/16 05:41:23;;;;;;;4.57;4.43;;;;;;;;;;5226810;22;20042;-58
2023/06/16 05:43:43;;;;;;;5.47;5.20;;;;;;;;;;5204054;22;20273;-57
2023/06/16 05:46:04;;;;;;;6.35;6.25;;;;;;;;;;5226805;22;20026;-58
2023/06/16 05:48:24;;;;;;;5.00;4.65;;;;;;;;;;5226781;22;20022;-58
2023/06/16 05:50:44;;;;;;;15.55;5.75;;;;;;;;;;5226800;22;20026;-58
2023/06/16 05:53:05;;;;;;;5.85;5.50;;;;;;;;;;5226747;22;20030;-58
2023/06/16 05:55:26;;;;;;;5.10;4.90;;;;;;;;;;5226731;22;20066;-58
2023/06/16 05:57:46;;;;;;;5.15;4.97;;;;;;;;;;5226737;22;20022;-58
2023/06/16 06:00:07;;;;;;;5.45;5.28;;;;;;;;;;5227591;22;20026;-58
2023/06/16 06:02:28;;;;;;;4.90;4.70;;;;;;;;;;5227833;22;20038;-58
2023/06/16 06:04:48;;;;;;;5.55;5.20;;;;;;;;;;5202185;22;20033;-58
2023/06/16 06:07:09;;;;;;;5.50;5.40;;;;;;;;;;5227776;22;20022;-58
2023/06/16 06:09:29;;;;;;;4.85;4.75;;;;;;;;;;5227755;22;20026;-58
2023/06/16 06:11:50;;;;;;;5.10;4.80;;;;;;;;;;5227877;22;20049;-58
2023/06/16 06:14:11;;;;;;;4.88;4.60;;;;;;;;;;5227720;22;20026;-58
2023/06/16 06:16:32;;;;;;;4.95;4.63;;;;;;;;;;5227829;22;20026;-58
2023/06/16 06:18:52;;;;;;;4.47;4.15;;;;;;;;;;5236362;22;20105;-57
2023/06/16 06:21:12;;;;;;;5.95;4.68;;;;;;;;;;5227754;22;20064;-58
2023/06/16 06:23:33;;;;;;;4.47;4.28;;;;;;;;;;5227644;22;20117;-58
2023/06/16 06:25:53;;;;;;;3.88;3.65;;;;;;;;;;5227697;22;20061;-58
2023/06/16 06:28:13;;;;;;;4.43;4.28;;;;;;;;;;5227594;22;20026;-58
2023/06/16 06:30:34;;;;;;;4.20;4.10;;;;;;;;;;5227633;22;20091;-58
2023/06/16 06:32:57;;;;;;;4.40;3.83;;;;;;;;;;5227645;22;20026;-58
2023/06/16 06:35:17;;;;;;;4.93;3.95;;;;;;;;;;5227806;22;20022;-58
2023/06/16 06:37:37;;;;;;;3.60;3.28;;;;;;;;;;5227769;22;20336;-58
2023/06/16 06:39:58;;;;;;;3.17;3.15;;;;;;;;;;5227639;22;20021;-58
2023/06/16 06:42:18;;;;;;;7.95;2.78;;;;;;;;;;5227755;22;20060;-58
2023/06/16 06:44:38;;;;;;;3.72;3.42;;;;;;;;;;5227679;22;20395;-58
2023/06/16 06:46:58;;;;;;;5.80;3.08;;;;;;;;;;5227703;22;20049;-58
2023/06/16 06:49:18;;;;;;;3.28;3.03;;;;;;;;;;5227617;22;20079;-58
2023/06/16 06:51:39;;;;;;;2.53;2.42;;;;;;;;;;5227642;22;20021;-59
2023/06/16 06:53:58;;;;;;;2.58;2.47;;;;;;;;;;5227625;22;20026;-58
2023/06/16 06:56:19;;;;;;;2.35;2.30;;;;;;;;;;5227606;22;20022;-59
2023/06/16 06:58:39;;;;;;;2.40;2.40;;;;;;;;;;5227651;22;20038;-58
2023/06/16 07:00:59;;;;;;;2.67;2.58;;;;;;;;;;5226928;22;20034;-58
2023/06/16 07:03:20;;;;;;;2.70;2.20;;;;;;;;;;5227566;22;20065;-58
2023/06/16 07:05:42;;;;;;;4.53;2.67;;;;;;;;;;5227667;22;20042;-58
2023/06/16 07:08:02;;;;;;;2.30;2.10;;;;;;;;;;5227474;22;20218;-59
2023/06/16 07:10:22;;;;;;;2.55;2.45;;;;;;;;;;5227216;22;20042;-58
2023/06/16 07:12:43;;;;;;;2.50;2.40;;;;;;;;;;5227649;22;20026;-58
2023/06/16 07:15:03;;;;;;;2.33;2.22;;;;;;;;;;5227564;22;20336;-59
2023/06/16 07:17:23;;;;;;;2.55;2.45;;;;;;;;;;5227526;22;20041;-58
2023/06/16 07:19:44;;;;;;;4.30;2.88;;;;;;;;;;5227522;22;20026;-59
2023/06/16 07:22:05;;;;;;;4.07;2.03;;;;;;;;;;5227551;22;20060;-58
2023/06/16 07:24:25;;;;;;;2.85;2.65;;;;;;;;;;5227457;22;20034;-59
2023/06/16 07:26:46;;;;;;;2.80;2.35;;;;;;;;;;5227527;22;20022;-58
2023/06/16 07:29:06;;;;;;;1.98;1.98;;;;;;;;;;5227349;22;20026;-59
2023/06/16 07:31:28;;;;;;;2.00;2.00;;;;;;;;;;5227422;22;20022;-59
2023/06/16 07:33:48;;;;;;;3.83;2.05;;;;;;;;;;5227448;22;20026;-59
2023/06/16 07:36:09;;;;;;;4.70;1.80;;;;;;;;;;5227466;22;20022;-59
2023/06/16 07:38:29;;;;;;;1.77;1.73;;;;;;;;;;5227404;22;20022;-59
2023/06/16 07:40:50;;;;;;;1.70;1.60;;;;;;;;;;5227352;22;20064;-58
2023/06/16 07:43:10;;;;;;;1.38;1.30;;;;;;;;;;5227587;22;20069;-59
2023/06/16 07:45:32;;;;;;;3.03;1.38;;;;;;;;;;5227407;22;20067;-59
2023/06/16 07:47:52;;;;;;;3.72;1.50;;;;;;;;;;5227292;22;20022;-59
2023/06/16 07:50:13;;;;;;;4.07;1.42;;;;;;;;;;5227477;22;20336;-59
2023/06/16 07:52:34;;;;;;;1.67;1.50;;;;;;;;;;5227433;22;20022;-59
2023/06/16 07:54:55;;;;;;;1.45;1.10;;;;;;;;;;5227299;22;20054;-59
2023/06/16 07:57:15;;;;;;;3.63;1.23;;;;;;;;;;5227407;22;20071;-59
2023/06/16 07:59:35;;;;;;;1.40;1.25;;;;;;;;;;5227355;22;20022;-59
2023/06/16 08:01:55;;;;;;;1.23;1.15;;;;;;;;;;5227323;22;20087;-59
2023/06/16 08:04:16;;;;;;;1.00;1.00;;;;;;;;;;5227370;22;20022;-59
2023/06/16 08:06:37;;;;;;;3.67;1.33;;;;;;;;;;5227426;22;20042;-59
2023/06/16 08:08:57;;;;;;;1.02;1.02;;;;;;;;;;5227224;22;20060;-59
2023/06/16 08:11:18;;;;;;;1.38;1.25;;;;;;;;;;5227349;22;20038;-59
2023/06/16 08:13:38;;;;;;;1.75;1.00;;;;;;;;;;5227378;22;20068;-59
2023/06/16 08:15:58;;;;;;;1.08;1.08;;;;;;;;;;5204400;22;20276;-59
2023/06/16 08:18:19;;;;;;;1.70;0.90;;;;;;;;;;5227387;22;20075;-59
2023/06/16 08:20:39;;;;;;;1.20;1.10;;;;;;;;;;5227271;22;20022;-59
2023/06/16 08:23:00;;;;;;;1.80;1.00;;;;;;;;;;5226456;22;20049;-60
2023/06/16 08:25:20;;;;;;;2.22;1.00;;;;;;;;;;5227193;22;20022;-59
2023/06/16 08:27:43;;;;;;;0.90;0.90;;;;;;;;;;5227228;22;20034;-59
2023/06/16 08:30:04;;;;;;;1.08;0.90;;;;;;;;;;5227274;22;20034;-59
2023/06/16 08:32:24;;;;;;;1.15;1.00;;;;;;;;;;5227303;22;20023;-60
2023/06/16 08:34:45;;;;;;;1.23;1.00;;;;;;;;;;5227218;22;20040;-59
2023/06/16 08:37:05;;;;;;;1.58;0.90;;;;;;;;;;5227335;22;20075;-59
2023/06/16 08:39:43;;;;;;;1.52;1.00;;;;;;;;;;5227169;22;20023;-59
2023/06/16 08:42:03;;;;;;;1.20;1.10;;;;;;;;;;5227221;22;20041;-59
2023/06/16 08:44:25;;;;;;;1.30;0.90;;;;;;;;;;5224632;22;20329;-59
2023/06/16 08:46:46;;;;;;;1.02;1.02;;;;;;;;;;5227304;22;20126;-59
2023/06/16 08:49:06;;;;;;;0.85;0.85;;;;;;;;;;5227092;22;20230;-59
2023/06/16 08:51:27;;;;;;;0.80;0.80;;;;;;;;;;5227194;22;20034;-59
2023/06/16 08:53:48;;;;;;;0.98;0.98;;;;;;;;;;5227332;22;20098;-59
2023/06/16 08:56:10;;;;;;;0.90;0.90;;;;;;;;;;5227262;22;20061;-60
2023/06/16 08:58:30;;;;;;;1.00;0.90;;;;;;;;;;5227166;22;20021;-59
2023/06/16 09:00:51;;;;;;;1.40;0.90;;;;;;;;;;5227142;22;20037;-59
2023/06/16 09:03:13;;;;;;;1.00;0.90;;;;;;;;;;5227139;22;20026;-59
2023/06/16 09:05:33;;;;;;;2.47;0.82;;;;;;;;;;5227090;22;20021;-59
2023/06/16 09:07:54;;;;;;;0.98;0.80;;;;;;;;;;5204097;22;20065;-59
2023/06/16 09:10:14;;;;;;;0.90;0.90;;;;;;;;;;5227159;22;20026;-59
2023/06/16 09:12:35;;;;;;;1.52;0.80;;;;;;;;;;5203890;22;20064;-59
2023/06/16 09:14:55;;;;;;;0.80;0.70;;;;;;;;;;5225412;22;20033;-59
2023/06/16 09:17:18;;;;;;;1.73;0.90;;;;;;;;;;5227132;22;20022;-59
2023/06/16 09:19:38;;;;;;;;;;;;;;;;;;5227532;22;20061;-59
2023/06/16 09:21:59;;;;;;;0.80;0.80;;;;;;;;;;5227008;22;19918;-59
2023/06/16 09:24:24;;;;;;;0.80;0.80;;;;;;;;;;5226949;22;20029;-59
2023/06/16 09:26:44;;;;;;;0.80;0.80;;;;;;;;;;5204084;22;20091;-59
2023/06/16 09:29:21;;;;;;;1.27;0.90;;;;;;;;;;5226831;22;20065;-59
2023/06/16 09:31:41;;;;;;;1.15;1.15;;;;;;;;;;5226962;22;20041;-59
2023/06/16 09:34:05;;;;;;;0.80;0.80;;;;;;;;;;5226632;22;20023;-59
2023/06/16 09:36:27;;;;;;;0.80;0.80;;;;;;;;;;5202224;22;20176;-59
2023/06/16 09:38:50;;;;;;;0.75;0.75;;;;;;;;;;5226864;22;20061;-60
2023/06/16 09:41:16;;;;;;;0.80;0.80;;;;;;;;;;5226764;22;20370;-59
2023/06/16 09:43:40;;;;;;;0.80;0.80;;;;;;;;;;5227033;22;20356;-60
2023/06/16 09:46:01;;;;;;;0.80;0.80;;;;;;;;;;5226833;22;20026;-59
2023/06/16 09:48:21;;;;;;;0.77;0.77;;;;;;;;;;5226661;22;20034;-59
2023/06/16 09:50:41;;;;;;;0.70;0.70;;;;;;;;;;5226801;22;20026;-59
2023/06/16 09:53:07;;;;;;;0.80;0.80;;;;;;;;;;5226779;22;20057;-60
2023/06/16 09:55:28;;;;;;;0.70;0.70;;;;;;;;;;5226766;22;20023;-59
2023/06/16 09:57:48;;;;;;;0.77;0.77;;;;;;;;;;5203739;22;20061;-59
2023/06/16 10:00:15;;;;;;;0.95;0.77;;;;;;;;;;5226753;22;20093;-59
2023/06/16 10:02:36;;;;;;;1.67;0.80;;;;;;;;;;5226746;22;20051;-59
2023/06/16 10:04:59;;;;;;;0.98;0.98;;;;;;;;;;5226599;22;20073;-59
2023/06/16 10:07:20;;;;;;;1.00;1.00;;;;;;;;;;5226558;22;20348;-59
2023/06/16 10:09:44;;;;;;;2.25;0.70;;;;;;;;;;5226551;22;20022;-60
2023/06/16 10:12:22;;;;;;;0.70;0.70;;;;;;;;;;5226662;22;20332;-60
2023/06/16 10:14:43;;;;;;;0.70;0.70;;;;;;;;;;5226527;22;20026;-59
2023/06/16 10:17:05;;;;;;;0.70;0.70;;;;;;;;;;5226633;22;20022;-60
2023/06/16 10:19:26;;;;;;;0.70;0.70;;;;;;;;;;5226710;22;20054;-59
2023/06/16 10:21:47;;;;;;;0.70;0.70;;;;;;;;;;5226575;22;20045;-60
2023/06/16 10:24:08;;;;;;;0.70;0.70;;;;;;;;;;5226602;22;20071;-59
2023/06/16 10:26:29;;;;;;;0.70;0.70;;;;;;;;;;5203681;22;20259;-60
2023/06/16 10:28:51;;;;;;;0.70;0.70;;;;;;;;;;5235003;22;20027;-59
2023/06/16 10:31:11;;;;;;;;;;;;;;;;;;5226894;22;20396;-59
2023/06/16 10:33:51;;;;;;;0.70;0.70;;;;;;;;;;5226448;22;19956;-59
2023/06/16 10:36:12;;;;;;;0.70;0.70;;;;;;;;;;5226545;22;20042;-59
2023/06/16 10:38:42;;;;;;;2.05;0.80;;;;;;;;;;5226492;22;20086;-59
2023/06/16 10:41:03;;;;;;;0.70;0.70;;;;;;;;;;5226338;22;20026;-60
2023/06/16 10:43:25;;;;;;;1.98;0.90;;;;;;;;;;5226405;22;20022;-59
2023/06/16 10:45:45;;;;;;;0.77;0.68;;;;;;;;;;5226705;22;20025;-60
2023/06/16 10:48:11;;;;;;;0.70;0.70;;;;;;;;;;5227616;22;20104;-59
2023/06/16 10:50:40;;;;;;;1.48;0.80;;;;;;;;;;5227703;22;20026;-59
2023/06/16 10:53:12;;;;;;;0.70;0.70;;;;;;;;;;5227622;22;20245;-60
2023/06/16 10:55:39;;;;;;;0.70;0.70;;;;;;;;;;5227719;22;20057;-60
2023/06/16 10:58:15;;;;;;;0.70;0.70;;;;;;;;;;5227631;22;20236;-60
2023/06/16 11:00:35;;;;;;;0.60;0.60;;;;;;;;;;5227686;22;20333;-59
2023/06/16 11:03:03;;;;;;;0.85;0.70;;;;;;;;;;5227614;22;20050;-59
2023/06/16 11:05:24;;;;;;;1.95;0.70;;;;;;;;;;5227589;22;20026;-59
2023/06/16 11:07:49;;;;;;;1.75;0.70;;;;;;;;;;5227541;22;20046;-59
2023/06/16 11:10:10;;;;;;;0.70;0.70;;;;;;;;;;5227586;22;20065;-59
2023/06/16 11:12:30;;;;;;;1.65;0.70;;;;;;;;;;5227569;22;20222;-59
2023/06/16 11:14:51;;;;;;;0.60;0.60;;;;;;;;;;5227656;22;20041;-60
2023/06/16 11:17:13;;;;;;;0.60;0.60;;;;;;;;;;5227637;22;20022;-60
2023/06/16 11:19:37;;;;;;;2.45;0.70;;;;;;;;;;5227544;22;20022;-60
2023/06/16 11:21:59;;;;;;;0.70;0.70;;;;;;;;;;5227595;22;20026;-60
2023/06/16 11:24:20;;;;;;;1.20;0.73;;;;;;;;;;5227568;22;20030;-59
2023/06/16 11:26:40;;;;;;;0.75;0.75;;;;;;;;;;5227436;22;20022;-59
2023/06/16 11:29:01;;;;;;;1.25;0.70;;;;;;;;;;5227373;22;20112;-59
2023/06/16 11:31:21;;;;;;;1.42;0.60;;;;;;;;;;5227570;22;20130;-59
2023/06/16 11:33:41;;;;;;;1.30;0.70;;;;;;;;;;5227489;22;20021;-59
2023/06/16 11:36:17;;;;;;;0.70;0.70;;;;;;;;;;5227464;22;20110;-59
2023/06/16 11:38:41;;;;;;;0.80;0.63;;;;;;;;;;5227402;22;20341;-59
2023/06/16 11:41:01;;;;;;;1.08;0.60;;;;;;;;;;5227477;22;20349;-59
2023/06/16 11:43:32;;;;;;;0.75;0.70;;;;;;;;;;5227446;22;20100;-59
2023/06/16 11:45:53;;;;;;;0.70;0.70;;;;;;;;;;5227462;22;20026;-59
2023/06/16 11:48:13;;;;;;;0.63;0.60;;;;;;;;;;5227290;22;20021;-59
2023/06/16 11:50:34;;;;;;;5.35;0.80;;;;;;;;;;5227451;22;20026;-59
2023/06/16 11:52:54;;;;;;;0.60;0.60;;;;;;;;;;5227300;22;20022;-58
2023/06/16 11:55:15;;;;;;;3.17;0.70;;;;;;;;;;5227342;22;20061;-59
2023/06/16 11:57:39;;;;;;;1.58;0.80;;;;;;;;;;5227303;22;20340;-59
2023/06/16 11:59:59;;;;;;;1.65;0.77;;;;;;;;;;5227367;22;20021;-59
2023/06/16 12:02:20;;;;;;;1.05;0.60;;;;;;;;;;5227320;22;20046;-59
2023/06/16 12:04:41;;;;;;;0.80;0.65;;;;;;;;;;5204445;22;20389;-59
2023/06/16 12:07:02;;;;;;;2.17;0.60;;;;;;;;;;5225551;22;20026;-59
2023/06/16 12:09:36;;;;;;;0.63;0.63;;;;;;;;;;5227240;22;20045;-59
2023/06/16 12:11:57;;;;;;;0.60;0.60;;;;;;;;;;5227307;22;20033;-59
2023/06/16 12:14:20;;;;;;;1.50;0.60;;;;;;;;;;5227422;22;20337;-59
2023/06/16 12:16:41;;;;;;;1.40;0.60;;;;;;;;;;5227398;22;20057;-58
2023/06/16 12:19:04;;;;;;;0.60;0.60;;;;;;;;;;5204375;22;20218;-58
2023/06/16 12:21:27;;;;;;;0.70;0.70;;;;;;;;;;5235849;22;20056;-58
2023/06/16 12:23:52;;;;;;;0.63;0.63;;;;;;;;;;5227704;22;20053;-59
2023/06/16 12:26:24;;;;;;;1.48;0.60;;;;;;;;;;5227434;22;20336;-59
2023/06/16 12:28:45;;;;;;;;;;;;;;;;;;5227697;22;20062;-58
2023/06/16 12:31:05;;;;;;;0.63;0.63;;;;;;;;;;5227245;22;20240;-59
2023/06/16 12:33:26;;;;;;;1.13;0.95;;;;;;;;;;5227306;22;20113;-59
2023/06/16 12:35:47;;;;;;;0.70;0.70;;;;;;;;;;5227182;22;20054;-59
2023/06/16 12:38:08;;;;;;;0.60;0.60;;;;;;;;;;5227277;22;20081;-59
2023/06/16 12:40:31;;;;;;;1.35;0.60;;;;;;;;;;5227126;22;20026;-59
2023/06/16 12:42:51;;;;;;;0.70;0.70;;;;;;;;;;5227114;22;20218;-58
2023/06/16 12:45:12;;;;;;;1.10;0.63;;;;;;;;;;5227237;22;20068;-57
2023/06/16 12:47:34;;;;;;;;;;;;;;;;;;5227742;22;20214;-58
2023/06/16 12:49:55;;;;;;;0.70;0.70;;;;;;;;;;5227221;22;20259;-57
2023/06/16 12:52:19;;;;;;;0.60;0.60;;;;;;;;;;5227177;22;20021;-58
2023/06/16 12:54:39;;;;;;;0.80;0.80;;;;;;;;;;5227136;22;20061;-58
2023/06/16 12:57:00;;;;;;;4.30;0.70;;;;;;;;;;5227183;22;20364;-58
2023/06/16 12:59:20;;;;;;;0.70;0.70;;;;;;;;;;5227098;22;20041;-57
2023/06/16 13:01:40;;;;;;;0.60;0.60;;;;;;;;;;5227170;22;20214;-57
2023/06/16 13:04:01;;;;;;;0.60;0.60;;;;;;;;;;5227402;22;20049;-57
2023/06/16 13:06:22;;;;;;;0.63;0.63;;;;;;;;;;5227108;22;20030;-58
2023/06/16 13:08:42;;;;;;;0.70;0.70;;;;;;;;;;5226516;22;20053;-57
2023/06/16 13:11:03;;;;;;;0.60;0.60;;;;;;;;;;5227207;22;20078;-58
2023/06/16 13:13:23;;;;;;;0.70;0.70;;;;;;;;;;5227066;22;20056;-57
2023/06/16 13:15:43;;;;;;;0.70;0.60;;;;;;;;;;5227000;22;20214;-58
2023/06/16 13:18:03;;;;;;;1.25;0.50;;;;;;;;;;5227149;22;20026;-58
2023/06/16 13:20:24;;;;;;;0.70;0.70;;;;;;;;;;5227038;22;20061;-58
2023/06/16 13:22:44;;;;;;;1.95;0.65;;;;;;;;;;5227069;22;20033;-58
2023/06/16 13:25:05;;;;;;;0.60;0.60;;;;;;;;;;5227034;22;20066;-58
2023/06/16 13:27:25;;;;;;;0.60;0.60;;;;;;;;;;5227066;22;20121;-58
2023/06/16 13:29:45;;;;;;;0.73;0.60;;;;;;;;;;5226816;22;20037;-57
2023/06/16 13:32:06;;;;;;;0.60;0.60;;;;;;;;;;5226991;22;20049;-57
2023/06/16 13:34:26;;;;;;;0.60;0.60;;;;;;;;;;5226993;22;20349;-57
2023/06/16 13:36:47;;;;;;;0.82;0.60;;;;;;;;;;5226873;22;20219;-58
2023/06/16 13:39:09;;;;;;;0.60;0.60;;;;;;;;;;5226860;22;20023;-58
2023/06/16 13:41:29;;;;;;;0.60;0.60;;;;;;;;;;5227004;22;20079;-57
2023/06/16 13:43:51;;;;;;;0.50;0.50;;;;;;;;;;5226961;22;20023;-57
2023/06/16 13:46:11;;;;;;;0.60;0.60;;;;;;;;;;5226945;22;20026;-57
2023/06/16 13:48:32;;;;;;;0.60;0.60;;;;;;;;;;5226774;22;20021;-58
2023/06/16 13:50:52;;;;;;;0.95;0.77;;;;;;;;;;5226815;22;20034;-57
2023/06/16 13:53:12;;;;;;;0.60;0.60;;;;;;;;;;5226758;22;20046;-58
2023/06/16 13:55:33;;;;;;;1.88;0.70;;;;;;;;;;5226756;22;20050;-58
2023/06/16 13:57:56;;;;;;;0.68;0.68;;;;;;;;;;5226731;22;20056;-57
2023/06/16 14:00:17;;;;;;;0.60;0.60;;;;;;;;;;5226678;22;20030;-57
2023/06/16 14:02:37;;;;;;;0.60;0.60;;;;;;;;;;5226675;22;20372;-57
2023/06/16 14:04:59;;;;;;;0.68;0.60;;;;;;;;;;5226699;22;20371;-57
2023/06/16 14:07:20;;;;;;;1.05;0.60;;;;;;;;;;5226664;22;20073;-57
2023/06/16 14:09:40;;;;;;;0.98;0.60;;;;;;;;;;5226577;22;20061;-58